sensor_id;sensor_type;location;lat;lon;timestamp;P1;durP1;ratioP1;P2;durP2;ratioP2
553;SDS011;59;48.778;9.156;2023-03-03T00:00:38;46.07;;;27.50;;
553;SDS011;59;48.778;9.156;2023-03-03T00:03:05;44.93;;;27.90;;
553;SDS011;59;48.778;9.156;2023-03-03T00:05:33;50.00;;;28.47;;
553;SDS011;59;48.778;9.156;2023-03-03T00:07:59;47.30;;;29.27;;
553;SDS011;59;48.778;9.156;2023-03-03T00:10:25;49.30;;;28.30;;
553;SDS011;59;48.778;9.156;2023-03-03T00:12:51;50.10;;;29.37;;
553;SDS011;59;48.778;9.156;2023-03-03T00:15:21;48.20;;;28.70;;
553;SDS011;59;48.778;9.156;2023-03-03T00:17:48;52.03;;;29.37;;
553;SDS011;59;48.778;9.156;2023-03-03T00:23:19;50.30;;;28.13;;
553;SDS011;59;48.778;9.156;2023-03-03T00:25:55;50.70;;;29.07;;
553;SDS011;59;48.778;9.156;2023-03-03T00:28:31;46.07;;;28.17;;
553;SDS011;59;48.778;9.156;2023-03-03T00:31:24;50.80;;;28.80;;
553;SDS011;59;48.778;9.156;2023-03-03T00:33:59;49.73;;;28.47;;
553;SDS011;59;48.778;9.156;2023-03-03T00:36:44;50.67;;;29.37;;
553;SDS011;59;48.778;9.156;2023-03-03T00:39:25;47.13;;;28.67;;
553;SDS011;59;48.778;9.156;2023-03-03T00:41:51;48.07;;;28.30;;
553;SDS011;59;48.778;9.156;2023-03-03T00:47:10;52.90;;;30.97;;
553;SDS011;59;48.778;9.156;2023-03-03T00:49:41;50.50;;;28.87;;
553;SDS011;59;48.778;9.156;2023-03-03T00:52:14;45.90;;;27.03;;
553;SDS011;59;48.778;9.156;2023-03-03T00:54:42;46.03;;;28.07;;
553;SDS011;59;48.778;9.156;2023-03-03T00:57:08;47.17;;;28.43;;
553;SDS011;59;48.778;9.156;2023-03-03T00:59:33;52.10;;;29.03;;
553;SDS011;59;48.778;9.156;2023-03-03T01:01:59;46.63;;;27.50;;
553;SDS011;59;48.778;9.156;2023-03-03T01:04:25;48.57;;;27.10;;
553;SDS011;59;48.778;9.156;2023-03-03T01:06:50;51.03;;;28.83;;
553;SDS011;59;48.778;9.156;2023-03-03T01:09:16;55.03;;;29.70;;
553;SDS011;59;48.778;9.156;2023-03-03T01:11:41;53.07;;;29.63;;
553;SDS011;59;48.778;9.156;2023-03-03T01:14:07;52.67;;;30.77;;
553;SDS011;59;48.778;9.156;2023-03-03T01:16:33;47.57;;;29.50;;
553;SDS011;59;48.778;9.156;2023-03-03T01:18:59;52.40;;;30.50;;
553;SDS011;59;48.778;9.156;2023-03-03T01:21:24;50.97;;;27.87;;
553;SDS011;59;48.778;9.156;2023-03-03T01:23:50;49.93;;;29.10;;
553;SDS011;59;48.778;9.156;2023-03-03T01:26:16;55.43;;;31.00;;
553;SDS011;59;48.778;9.156;2023-03-03T01:28:41;55.30;;;30.73;;
553;SDS011;59;48.778;9.156;2023-03-03T01:31:07;52.43;;;31.10;;
553;SDS011;59;48.778;9.156;2023-03-03T01:33:33;50.50;;;29.70;;
553;SDS011;59;48.778;9.156;2023-03-03T01:36:00;50.77;;;30.93;;
553;SDS011;59;48.778;9.156;2023-03-03T01:38:26;52.50;;;30.00;;
553;SDS011;59;48.778;9.156;2023-03-03T01:40:55;59.07;;;32.33;;
553;SDS011;59;48.778;9.156;2023-03-03T01:43:22;50.80;;;28.73;;
553;SDS011;59;48.778;9.156;2023-03-03T01:48:22;53.27;;;31.40;;
553;SDS011;59;48.778;9.156;2023-03-03T01:53:48;52.67;;;30.10;;
553;SDS011;59;48.778;9.156;2023-03-03T01:56:16;52.07;;;30.10;;
553;SDS011;59;48.778;9.156;2023-03-03T01:58:43;53.00;;;29.80;;
553;SDS011;59;48.778;9.156;2023-03-03T02:01:30;51.73;;;29.37;;
553;SDS011;59;48.778;9.156;2023-03-03T02:03:57;52.63;;;31.30;;
553;SDS011;59;48.778;9.156;2023-03-03T02:06:25;49.70;;;29.67;;
553;SDS011;59;48.778;9.156;2023-03-03T02:09:01;49.53;;;28.13;;
553;SDS011;59;48.778;9.156;2023-03-03T02:11:28;54.00;;;31.00;;
553;SDS011;59;48.778;9.156;2023-03-03T02:13:55;53.83;;;30.97;;
553;SDS011;59;48.778;9.156;2023-03-03T02:16:21;51.57;;;30.50;;
553;SDS011;59;48.778;9.156;2023-03-03T02:18:47;51.27;;;30.67;;
553;SDS011;59;48.778;9.156;2023-03-03T02:21:16;56.23;;;30.40;;
553;SDS011;59;48.778;9.156;2023-03-03T02:23:49;52.07;;;30.30;;
553;SDS011;59;48.778;9.156;2023-03-03T02:26:36;56.40;;;31.67;;
553;SDS011;59;48.778;9.156;2023-03-03T02:29:05;58.77;;;31.90;;
553;SDS011;59;48.778;9.156;2023-03-03T02:31:31;58.53;;;33.07;;
553;SDS011;59;48.778;9.156;2023-03-03T02:33:57;58.00;;;31.80;;
553;SDS011;59;48.778;9.156;2023-03-03T02:36:24;51.60;;;30.40;;
553;SDS011;59;48.778;9.156;2023-03-03T02:39:13;58.67;;;31.87;;
553;SDS011;59;48.778;9.156;2023-03-03T02:42:05;55.40;;;31.10;;
553;SDS011;59;48.778;9.156;2023-03-03T02:44:53;56.47;;;30.83;;
553;SDS011;59;48.778;9.156;2023-03-03T02:47:18;56.73;;;30.73;;
553;SDS011;59;48.778;9.156;2023-03-03T02:49:44;54.80;;;30.70;;
553;SDS011;59;48.778;9.156;2023-03-03T02:52:10;56.53;;;30.90;;
553;SDS011;59;48.778;9.156;2023-03-03T02:54:36;58.57;;;31.23;;
553;SDS011;59;48.778;9.156;2023-03-03T02:57:02;52.20;;;29.50;;
553;SDS011;59;48.778;9.156;2023-03-03T02:59:29;54.93;;;32.00;;
553;SDS011;59;48.778;9.156;2023-03-03T03:01:55;54.70;;;31.07;;
553;SDS011;59;48.778;9.156;2023-03-03T03:04:22;55.80;;;30.70;;
553;SDS011;59;48.778;9.156;2023-03-03T03:06:49;55.17;;;31.73;;
553;SDS011;59;48.778;9.156;2023-03-03T03:09:16;60.13;;;32.67;;
553;SDS011;59;48.778;9.156;2023-03-03T03:11:42;53.50;;;30.20;;
553;SDS011;59;48.778;9.156;2023-03-03T03:14:09;61.70;;;33.30;;
553;SDS011;59;48.778;9.156;2023-03-03T03:16:37;52.83;;;31.10;;
553;SDS011;59;48.778;9.156;2023-03-03T03:19:03;53.87;;;29.83;;
553;SDS011;59;48.778;9.156;2023-03-03T03:21:29;53.70;;;29.17;;
553;SDS011;59;48.778;9.156;2023-03-03T03:23:55;54.53;;;30.90;;
553;SDS011;59;48.778;9.156;2023-03-03T03:26:21;58.03;;;31.27;;
553;SDS011;59;48.778;9.156;2023-03-03T03:28:47;58.63;;;32.20;;
553;SDS011;59;48.778;9.156;2023-03-03T03:31:14;54.63;;;29.60;;
553;SDS011;59;48.778;9.156;2023-03-03T03:33:40;59.40;;;31.40;;
553;SDS011;59;48.778;9.156;2023-03-03T03:36:06;57.30;;;31.57;;
553;SDS011;59;48.778;9.156;2023-03-03T03:38:32;56.90;;;29.77;;
553;SDS011;59;48.778;9.156;2023-03-03T03:40:58;58.30;;;33.10;;
553;SDS011;59;48.778;9.156;2023-03-03T03:43:24;57.40;;;32.17;;
553;SDS011;59;48.778;9.156;2023-03-03T03:45:50;53.33;;;30.67;;
553;SDS011;59;48.778;9.156;2023-03-03T03:48:16;62.17;;;33.50;;
553;SDS011;59;48.778;9.156;2023-03-03T03:50:44;54.93;;;32.10;;
553;SDS011;59;48.778;9.156;2023-03-03T03:53:11;56.33;;;30.27;;
553;SDS011;59;48.778;9.156;2023-03-03T03:55:37;59.53;;;32.17;;
553;SDS011;59;48.778;9.156;2023-03-03T03:58:02;68.87;;;35.37;;
553;SDS011;59;48.778;9.156;2023-03-03T04:00:28;62.50;;;34.57;;
553;SDS011;59;48.778;9.156;2023-03-03T04:02:54;65.17;;;33.80;;
553;SDS011;59;48.778;9.156;2023-03-03T04:05:20;67.37;;;36.47;;
553;SDS011;59;48.778;9.156;2023-03-03T04:07:45;60.20;;;33.33;;
553;SDS011;59;48.778;9.156;2023-03-03T04:10:11;66.97;;;34.10;;
553;SDS011;59;48.778;9.156;2023-03-03T04:12:37;59.50;;;31.83;;
553;SDS011;59;48.778;9.156;2023-03-03T04:15:06;63.60;;;33.80;;
553;SDS011;59;48.778;9.156;2023-03-03T04:17:34;64.93;;;35.60;;
553;SDS011;59;48.778;9.156;2023-03-03T04:20:00;65.00;;;33.50;;
553;SDS011;59;48.778;9.156;2023-03-03T04:22:26;59.03;;;33.47;;
553;SDS011;59;48.778;9.156;2023-03-03T04:24:53;60.07;;;32.53;;
553;SDS011;59;48.778;9.156;2023-03-03T04:27:19;59.37;;;32.93;;
553;SDS011;59;48.778;9.156;2023-03-03T04:29:44;60.83;;;32.27;;
553;SDS011;59;48.778;9.156;2023-03-03T04:32:10;63.20;;;33.93;;
553;SDS011;59;48.778;9.156;2023-03-03T04:34:36;57.57;;;32.03;;
553;SDS011;59;48.778;9.156;2023-03-03T04:37:02;58.43;;;32.00;;
553;SDS011;59;48.778;9.156;2023-03-03T04:39:27;58.50;;;31.83;;
553;SDS011;59;48.778;9.156;2023-03-03T04:41:53;59.20;;;32.90;;
553;SDS011;59;48.778;9.156;2023-03-03T04:44:19;57.17;;;32.07;;
553;SDS011;59;48.778;9.156;2023-03-03T04:46:45;60.50;;;33.40;;
553;SDS011;59;48.778;9.156;2023-03-03T04:49:10;62.30;;;33.07;;
553;SDS011;59;48.778;9.156;2023-03-03T04:51:36;66.93;;;35.70;;
553;SDS011;59;48.778;9.156;2023-03-03T04:54:02;63.43;;;35.90;;
553;SDS011;59;48.778;9.156;2023-03-03T04:56:29;66.33;;;34.53;;
553;SDS011;59;48.778;9.156;2023-03-03T04:58:55;62.87;;;33.40;;
553;SDS011;59;48.778;9.156;2023-03-03T05:01:21;62.60;;;33.53;;
553;SDS011;59;48.778;9.156;2023-03-03T05:03:47;62.00;;;33.73;;
553;SDS011;59;48.778;9.156;2023-03-03T05:06:13;62.43;;;35.60;;
553;SDS011;59;48.778;9.156;2023-03-03T05:08:38;61.50;;;34.30;;
553;SDS011;59;48.778;9.156;2023-03-03T05:11:04;60.97;;;34.00;;
553;SDS011;59;48.778;9.156;2023-03-03T05:13:29;61.37;;;32.63;;
553;SDS011;59;48.778;9.156;2023-03-03T05:15:55;65.17;;;34.53;;
553;SDS011;59;48.778;9.156;2023-03-03T05:18:24;67.13;;;35.87;;
553;SDS011;59;48.778;9.156;2023-03-03T05:20:51;62.80;;;33.33;;
553;SDS011;59;48.778;9.156;2023-03-03T05:23:17;69.70;;;35.30;;
553;SDS011;59;48.778;9.156;2023-03-03T05:25:43;66.80;;;35.43;;
553;SDS011;59;48.778;9.156;2023-03-03T05:28:11;69.63;;;37.73;;
553;SDS011;59;48.778;9.156;2023-03-03T05:30:36;71.50;;;36.57;;
553;SDS011;59;48.778;9.156;2023-03-03T05:33:03;64.23;;;34.83;;
553;SDS011;59;48.778;9.156;2023-03-03T05:35:29;66.43;;;35.43;;
553;SDS011;59;48.778;9.156;2023-03-03T05:37:54;63.63;;;35.07;;
553;SDS011;59;48.778;9.156;2023-03-03T05:40:22;70.20;;;34.10;;
553;SDS011;59;48.778;9.156;2023-03-03T05:42:48;65.30;;;35.10;;
553;SDS011;59;48.778;9.156;2023-03-03T05:45:14;63.70;;;34.30;;
553;SDS011;59;48.778;9.156;2023-03-03T05:47:40;71.40;;;35.63;;
553;SDS011;59;48.778;9.156;2023-03-03T05:50:06;62.10;;;34.57;;
553;SDS011;59;48.778;9.156;2023-03-03T05:52:32;63.60;;;34.00;;
553;SDS011;59;48.778;9.156;2023-03-03T05:54:57;61.43;;;33.57;;
553;SDS011;59;48.778;9.156;2023-03-03T05:57:23;55.03;;;30.73;;
553;SDS011;59;48.778;9.156;2023-03-03T05:59:48;66.73;;;34.43;;
553;SDS011;59;48.778;9.156;2023-03-03T06:02:14;61.03;;;33.07;;
553;SDS011;59;48.778;9.156;2023-03-03T06:04:40;62.97;;;34.17;;
553;SDS011;59;48.778;9.156;2023-03-03T06:07:05;63.97;;;34.63;;
553;SDS011;59;48.778;9.156;2023-03-03T06:09:31;59.60;;;33.40;;
553;SDS011;59;48.778;9.156;2023-03-03T06:11:57;58.20;;;32.53;;
553;SDS011;59;48.778;9.156;2023-03-03T06:14:23;56.47;;;31.67;;
553;SDS011;59;48.778;9.156;2023-03-03T06:16:49;55.27;;;30.83;;
553;SDS011;59;48.778;9.156;2023-03-03T06:19:15;55.20;;;31.03;;
553;SDS011;59;48.778;9.156;2023-03-03T06:21:41;57.13;;;30.13;;
553;SDS011;59;48.778;9.156;2023-03-03T06:24:07;58.97;;;31.10;;
553;SDS011;59;48.778;9.156;2023-03-03T06:26:32;50.67;;;29.33;;
553;SDS011;59;48.778;9.156;2023-03-03T06:28:58;52.67;;;29.97;;
553;SDS011;59;48.778;9.156;2023-03-03T06:31:25;54.40;;;30.67;;
553;SDS011;59;48.778;9.156;2023-03-03T06:33:51;55.57;;;29.70;;
553;SDS011;59;48.778;9.156;2023-03-03T06:36:17;55.83;;;30.07;;
553;SDS011;59;48.778;9.156;2023-03-03T06:38:46;58.13;;;32.03;;
553;SDS011;59;48.778;9.156;2023-03-03T06:41:47;57.47;;;31.27;;
553;SDS011;59;48.778;9.156;2023-03-03T06:44:13;59.30;;;32.10;;
553;SDS011;59;48.778;9.156;2023-03-03T06:46:39;53.47;;;30.47;;
553;SDS011;59;48.778;9.156;2023-03-03T06:49:05;58.83;;;31.80;;
553;SDS011;59;48.778;9.156;2023-03-03T06:51:32;62.17;;;32.73;;
553;SDS011;59;48.778;9.156;2023-03-03T06:54:01;55.70;;;31.80;;
553;SDS011;59;48.778;9.156;2023-03-03T06:56:32;57.57;;;31.10;;
553;SDS011;59;48.778;9.156;2023-03-03T06:59:00;57.07;;;31.20;;
553;SDS011;59;48.778;9.156;2023-03-03T07:01:32;53.10;;;30.60;;
553;SDS011;59;48.778;9.156;2023-03-03T07:04:00;52.90;;;30.10;;
553;SDS011;59;48.778;9.156;2023-03-03T07:06:26;53.33;;;29.93;;
553;SDS011;59;48.778;9.156;2023-03-03T07:08:52;54.17;;;30.10;;
553;SDS011;59;48.778;9.156;2023-03-03T07:11:19;58.10;;;31.23;;
553;SDS011;59;48.778;9.156;2023-03-03T07:13:47;52.40;;;29.77;;
553;SDS011;59;48.778;9.156;2023-03-03T07:16:14;54.23;;;27.83;;
553;SDS011;59;48.778;9.156;2023-03-03T07:21:21;49.47;;;28.40;;
553;SDS011;59;48.778;9.156;2023-03-03T07:23:49;49.60;;;27.73;;
553;SDS011;59;48.778;9.156;2023-03-03T07:26:17;47.60;;;26.53;;
553;SDS011;59;48.778;9.156;2023-03-03T07:28:51;49.90;;;27.90;;
553;SDS011;59;48.778;9.156;2023-03-03T07:33:52;49.70;;;26.67;;
553;SDS011;59;48.778;9.156;2023-03-03T07:36:23;50.30;;;28.20;;
553;SDS011;59;48.778;9.156;2023-03-03T07:38:52;54.37;;;31.30;;
553;SDS011;59;48.778;9.156;2023-03-03T07:41:19;66.87;;;36.47;;
553;SDS011;59;48.778;9.156;2023-03-03T07:43:48;58.20;;;31.27;;
553;SDS011;59;48.778;9.156;2023-03-03T07:48:52;54.43;;;29.10;;
553;SDS011;59;48.778;9.156;2023-03-03T07:51:18;49.60;;;29.33;;
553;SDS011;59;48.778;9.156;2023-03-03T07:53:49;45.90;;;25.90;;
553;SDS011;59;48.778;9.156;2023-03-03T07:56:29;50.83;;;27.70;;
553;SDS011;59;48.778;9.156;2023-03-03T07:58:59;43.97;;;26.67;;
553;SDS011;59;48.778;9.156;2023-03-03T08:01:43;44.13;;;25.97;;
553;SDS011;59;48.778;9.156;2023-03-03T08:04:16;55.67;;;31.20;;
553;SDS011;59;48.778;9.156;2023-03-03T08:06:46;51.63;;;29.27;;
553;SDS011;59;48.778;9.156;2023-03-03T08:14:34;49.53;;;26.90;;
553;SDS011;59;48.778;9.156;2023-03-03T08:17:06;47.67;;;27.17;;
553;SDS011;59;48.778;9.156;2023-03-03T08:19:39;48.43;;;27.30;;
553;SDS011;59;48.778;9.156;2023-03-03T08:22:11;49.60;;;27.70;;
553;SDS011;59;48.778;9.156;2023-03-03T08:24:39;48.63;;;27.53;;
553;SDS011;59;48.778;9.156;2023-03-03T08:27:05;51.93;;;28.50;;
553;SDS011;59;48.778;9.156;2023-03-03T08:29:31;53.90;;;28.57;;
553;SDS011;59;48.778;9.156;2023-03-03T08:31:56;50.20;;;26.50;;
553;SDS011;59;48.778;9.156;2023-03-03T08:34:22;42.67;;;26.03;;
553;SDS011;59;48.778;9.156;2023-03-03T08:36:48;45.40;;;26.63;;
553;SDS011;59;48.778;9.156;2023-03-03T08:39:14;42.50;;;24.20;;
553;SDS011;59;48.778;9.156;2023-03-03T08:41:40;47.30;;;24.90;;
553;SDS011;59;48.778;9.156;2023-03-03T08:44:08;42.50;;;25.23;;
553;SDS011;59;48.778;9.156;2023-03-03T08:46:34;39.70;;;22.37;;
553;SDS011;59;48.778;9.156;2023-03-03T08:49:00;37.77;;;22.60;;
553;SDS011;59;48.778;9.156;2023-03-03T08:51:25;38.50;;;22.20;;
553;SDS011;59;48.778;9.156;2023-03-03T08:53:51;41.90;;;24.23;;
553;SDS011;59;48.778;9.156;2023-03-03T08:56:17;39.77;;;23.80;;
553;SDS011;59;48.778;9.156;2023-03-03T08:58:42;40.80;;;23.37;;
553;SDS011;59;48.778;9.156;2023-03-03T09:01:12;32.10;;;21.00;;
553;SDS011;59;48.778;9.156;2023-03-03T09:03:41;37.10;;;21.87;;
553;SDS011;59;48.778;9.156;2023-03-03T09:06:07;46.63;;;27.80;;
553;SDS011;59;48.778;9.156;2023-03-03T09:08:32;44.83;;;25.67;;
553;SDS011;59;48.778;9.156;2023-03-03T09:10:58;40.73;;;25.03;;
553;SDS011;59;48.778;9.156;2023-03-03T09:13:24;37.07;;;22.50;;
553;SDS011;59;48.778;9.156;2023-03-03T09:15:51;43.43;;;25.70;;
553;SDS011;59;48.778;9.156;2023-03-03T09:18:21;45.13;;;28.20;;
553;SDS011;59;48.778;9.156;2023-03-03T09:20:53;41.13;;;25.20;;
553;SDS011;59;48.778;9.156;2023-03-03T09:26:12;37.80;;;22.20;;
553;SDS011;59;48.778;9.156;2023-03-03T09:28:51;39.23;;;22.30;;
553;SDS011;59;48.778;9.156;2023-03-03T09:33:51;33.60;;;20.70;;
553;SDS011;59;48.778;9.156;2023-03-03T09:36:36;35.67;;;21.57;;
553;SDS011;59;48.778;9.156;2023-03-03T09:39:18;42.23;;;25.20;;
553;SDS011;59;48.778;9.156;2023-03-03T09:42:03;39.90;;;24.53;;
553;SDS011;59;48.778;9.156;2023-03-03T09:58:52;41.47;;;26.17;;
553;SDS011;59;48.778;9.156;2023-03-03T10:18:15;38.97;;;24.83;;
553;SDS011;59;48.778;9.156;2023-03-03T10:23:44;38.63;;;22.63;;
553;SDS011;59;48.778;9.156;2023-03-03T10:26:20;38.27;;;24.63;;
553;SDS011;59;48.778;9.156;2023-03-03T10:29:22;45.23;;;27.97;;
553;SDS011;59;48.778;9.156;2023-03-03T10:34:53;38.57;;;23.87;;
553;SDS011;59;48.778;9.156;2023-03-03T10:37:27;35.57;;;21.73;;
553;SDS011;59;48.778;9.156;2023-03-03T10:40:33;49.10;;;28.23;;
553;SDS011;59;48.778;9.156;2023-03-03T10:43:10;41.17;;;24.90;;
553;SDS011;59;48.778;9.156;2023-03-03T10:46:47;37.17;;;23.40;;
553;SDS011;59;48.778;9.156;2023-03-03T10:51:28;42.67;;;27.30;;
553;SDS011;59;48.778;9.156;2023-03-03T10:54:37;43.50;;;26.17;;
553;SDS011;59;48.778;9.156;2023-03-03T10:57:15;40.70;;;24.37;;
553;SDS011;59;48.778;9.156;2023-03-03T11:08:14;42.93;;;25.97;;
553;SDS011;59;48.778;9.156;2023-03-03T11:10:50;41.20;;;26.00;;
553;SDS011;59;48.778;9.156;2023-03-03T11:13:38;42.87;;;26.50;;
553;SDS011;59;48.778;9.156;2023-03-03T11:24:14;45.80;;;29.30;;
553;SDS011;59;48.778;9.156;2023-03-03T11:32:00;44.73;;;26.80;;
553;SDS011;59;48.778;9.156;2023-03-03T11:40:09;47.03;;;28.50;;
553;SDS011;59;48.778;9.156;2023-03-03T11:43:09;44.60;;;27.50;;
553;SDS011;59;48.778;9.156;2023-03-03T11:45:59;46.17;;;27.90;;
553;SDS011;59;48.778;9.156;2023-03-03T11:54:20;43.37;;;25.80;;
553;SDS011;59;48.778;9.156;2023-03-03T11:56:49;44.43;;;27.57;;
553;SDS011;59;48.778;9.156;2023-03-03T11:59:22;42.63;;;26.03;;
553;SDS011;59;48.778;9.156;2023-03-03T12:01:56;42.10;;;25.87;;
553;SDS011;59;48.778;9.156;2023-03-03T12:04:33;52.67;;;31.13;;
553;SDS011;59;48.778;9.156;2023-03-03T12:12:13;41.67;;;27.10;;
553;SDS011;59;48.778;9.156;2023-03-03T12:20:16;40.13;;;24.30;;
553;SDS011;59;48.778;9.156;2023-03-03T12:25:31;42.50;;;24.07;;
553;SDS011;59;48.778;9.156;2023-03-03T12:28:16;39.43;;;24.67;;
553;SDS011;59;48.778;9.156;2023-03-03T12:44:37;40.47;;;25.07;;
553;SDS011;59;48.778;9.156;2023-03-03T12:47:52;44.60;;;26.23;;
553;SDS011;59;48.778;9.156;2023-03-03T12:50:26;40.67;;;23.30;;
553;SDS011;59;48.778;9.156;2023-03-03T12:55:43;35.97;;;22.20;;
553;SDS011;59;48.778;9.156;2023-03-03T13:00:59;33.47;;;20.20;;
553;SDS011;59;48.778;9.156;2023-03-03T13:16:37;36.10;;;20.70;;
553;SDS011;59;48.778;9.156;2023-03-03T13:19:25;40.87;;;23.90;;
553;SDS011;59;48.778;9.156;2023-03-03T13:21:54;39.30;;;23.50;;
553;SDS011;59;48.778;9.156;2023-03-03T13:27:06;36.83;;;23.40;;
553;SDS011;59;48.778;9.156;2023-03-03T13:29:36;36.60;;;22.63;;
553;SDS011;59;48.778;9.156;2023-03-03T13:32:08;38.63;;;23.90;;
553;SDS011;59;48.778;9.156;2023-03-03T13:37:51;41.13;;;25.87;;
553;SDS011;59;48.778;9.156;2023-03-03T13:40:18;35.27;;;21.87;;
553;SDS011;59;48.778;9.156;2023-03-03T13:43:02;39.00;;;23.77;;
553;SDS011;59;48.778;9.156;2023-03-03T13:51:08;40.57;;;24.70;;
553;SDS011;59;48.778;9.156;2023-03-03T13:53:38;47.30;;;27.80;;
553;SDS011;59;48.778;9.156;2023-03-03T13:59:01;37.03;;;23.40;;
553;SDS011;59;48.778;9.156;2023-03-03T14:01:36;38.13;;;24.43;;
553;SDS011;59;48.778;9.156;2023-03-03T14:04:23;39.03;;;24.20;;
553;SDS011;59;48.778;9.156;2023-03-03T14:07:24;46.70;;;26.60;;
553;SDS011;59;48.778;9.156;2023-03-03T14:10:11;40.83;;;26.33;;
553;SDS011;59;48.778;9.156;2023-03-03T14:21:18;44.57;;;26.10;;
553;SDS011;59;48.778;9.156;2023-03-03T14:26:25;38.07;;;23.17;;
553;SDS011;59;48.778;9.156;2023-03-03T14:28:51;34.97;;;22.23;;
553;SDS011;59;48.778;9.156;2023-03-03T14:31:39;31.70;;;20.50;;
553;SDS011;59;48.778;9.156;2023-03-03T14:36:43;32.10;;;20.10;;
553;SDS011;59;48.778;9.156;2023-03-03T14:44:57;38.17;;;23.30;;
553;SDS011;59;48.778;9.156;2023-03-03T14:47:28;38.43;;;22.43;;
553;SDS011;59;48.778;9.156;2023-03-03T14:49:55;37.13;;;22.53;;
553;SDS011;59;48.778;9.156;2023-03-03T14:52:30;38.43;;;22.93;;
553;SDS011;59;48.778;9.156;2023-03-03T14:54:59;41.53;;;23.87;;
553;SDS011;59;48.778;9.156;2023-03-03T15:00:26;47.40;;;28.47;;
553;SDS011;59;48.778;9.156;2023-03-03T15:05:38;51.07;;;27.40;;
553;SDS011;59;48.778;9.156;2023-03-03T15:08:21;42.27;;;25.27;;
553;SDS011;59;48.778;9.156;2023-03-03T15:11:11;41.27;;;23.73;;
553;SDS011;59;48.778;9.156;2023-03-03T15:13:50;33.90;;;21.70;;
553;SDS011;59;48.778;9.156;2023-03-03T15:16:17;38.33;;;24.07;;
553;SDS011;59;48.778;9.156;2023-03-03T15:21:25;41.77;;;24.70;;
553;SDS011;59;48.778;9.156;2023-03-03T15:24:06;44.07;;;26.90;;
553;SDS011;59;48.778;9.156;2023-03-03T15:26:55;40.23;;;24.30;;
553;SDS011;59;48.778;9.156;2023-03-03T15:29:34;38.90;;;23.57;;
553;SDS011;59;48.778;9.156;2023-03-03T15:34:53;37.30;;;22.30;;
553;SDS011;59;48.778;9.156;2023-03-03T15:42:36;38.40;;;23.20;;
553;SDS011;59;48.778;9.156;2023-03-03T15:58:16;34.00;;;22.07;;
553;SDS011;59;48.778;9.156;2023-03-03T16:03:45;36.13;;;20.37;;
553;SDS011;59;48.778;9.156;2023-03-03T16:06:27;30.43;;;18.60;;
553;SDS011;59;48.778;9.156;2023-03-03T16:12:04;32.17;;;19.63;;
553;SDS011;59;48.778;9.156;2023-03-03T16:20:12;34.90;;;20.50;;
553;SDS011;59;48.778;9.156;2023-03-03T16:28:13;38.10;;;22.60;;
553;SDS011;59;48.778;9.156;2023-03-03T16:30:49;34.13;;;20.40;;
553;SDS011;59;48.778;9.156;2023-03-03T16:33:21;33.53;;;19.50;;
553;SDS011;59;48.778;9.156;2023-03-03T16:36:10;30.30;;;19.20;;
553;SDS011;59;48.778;9.156;2023-03-03T16:41:41;27.27;;;16.83;;
553;SDS011;59;48.778;9.156;2023-03-03T16:47:17;26.43;;;16.20;;
553;SDS011;59;48.778;9.156;2023-03-03T16:50:34;26.57;;;16.67;;
553;SDS011;59;48.778;9.156;2023-03-03T16:53:05;28.80;;;17.80;;
553;SDS011;59;48.778;9.156;2023-03-03T17:15:12;27.33;;;17.57;;
553;SDS011;59;48.778;9.156;2023-03-03T17:39:51;31.97;;;20.30;;
553;SDS011;59;48.778;9.156;2023-03-03T17:45:04;29.90;;;18.40;;
553;SDS011;59;48.778;9.156;2023-03-03T17:47:50;36.00;;;19.97;;
553;SDS011;59;48.778;9.156;2023-03-03T17:56:00;35.87;;;20.47;;
553;SDS011;59;48.778;9.156;2023-03-03T18:01:34;35.17;;;21.90;;
553;SDS011;59;48.778;9.156;2023-03-03T18:12:48;36.10;;;22.00;;
553;SDS011;59;48.778;9.156;2023-03-03T18:18:45;39.77;;;23.80;;
553;SDS011;59;48.778;9.156;2023-03-03T18:21:48;42.83;;;24.90;;
553;SDS011;59;48.778;9.156;2023-03-03T18:41:03;47.30;;;27.13;;
553;SDS011;59;48.778;9.156;2023-03-03T18:46:09;45.23;;;26.40;;
553;SDS011;59;48.778;9.156;2023-03-03T18:54:24;49.50;;;28.37;;
553;SDS011;59;48.778;9.156;2023-03-03T19:02:37;44.00;;;25.97;;
553;SDS011;59;48.778;9.156;2023-03-03T19:04:50;49.37;;;28.70;;
553;SDS011;59;48.778;9.156;2023-03-03T19:10:01;50.37;;;28.80;;
553;SDS011;59;48.778;9.156;2023-03-03T19:12:45;52.90;;;30.00;;
553;SDS011;59;48.778;9.156;2023-03-03T19:20:56;52.10;;;30.90;;
553;SDS011;59;48.778;9.156;2023-03-03T19:26:33;55.90;;;32.37;;
553;SDS011;59;48.778;9.156;2023-03-03T19:37:28;50.73;;;28.47;;
553;SDS011;59;48.778;9.156;2023-03-03T19:46:50;53.77;;;29.73;;
553;SDS011;59;48.778;9.156;2023-03-03T19:51:56;46.27;;;27.47;;
553;SDS011;59;48.778;9.156;2023-03-03T19:58:02;44.83;;;25.97;;
553;SDS011;59;48.778;9.156;2023-03-03T20:00:04;46.37;;;27.70;;
553;SDS011;59;48.778;9.156;2023-03-03T20:57:01;43.47;;;26.60;;
553;SDS011;59;48.778;9.156;2023-03-03T21:00:18;46.40;;;25.33;;
553;SDS011;59;48.778;9.156;2023-03-03T21:05:19;43.70;;;25.27;;
553;SDS011;59;48.778;9.156;2023-03-03T21:07:49;41.23;;;23.47;;
553;SDS011;59;48.778;9.156;2023-03-03T21:10:19;44.70;;;24.80;;
553;SDS011;59;48.778;9.156;2023-03-03T21:12:52;51.03;;;27.20;;
553;SDS011;59;48.778;9.156;2023-03-03T21:15:28;49.73;;;27.53;;
553;SDS011;59;48.778;9.156;2023-03-03T21:17:56;50.60;;;27.40;;
553;SDS011;59;48.778;9.156;2023-03-03T21:22:48;56.60;;;30.63;;
553;SDS011;59;48.778;9.156;2023-03-03T21:28:18;47.10;;;26.50;;
553;SDS011;59;48.778;9.156;2023-03-03T21:33:38;42.67;;;25.33;;
553;SDS011;59;48.778;9.156;2023-03-03T21:36:13;47.37;;;25.97;;
553;SDS011;59;48.778;9.156;2023-03-03T21:38:44;43.70;;;25.40;;
553;SDS011;59;48.778;9.156;2023-03-03T21:41:10;43.67;;;25.57;;
553;SDS011;59;48.778;9.156;2023-03-03T21:46:22;46.33;;;26.03;;
553;SDS011;59;48.778;9.156;2023-03-03T21:48:52;43.93;;;26.33;;
553;SDS011;59;48.778;9.156;2023-03-03T21:51:17;46.63;;;25.40;;
553;SDS011;59;48.778;9.156;2023-03-03T21:53:45;43.60;;;26.00;;
553;SDS011;59;48.778;9.156;2023-03-03T21:56:11;42.53;;;25.80;;
553;SDS011;59;48.778;9.156;2023-03-03T21:58:38;43.33;;;24.43;;
553;SDS011;59;48.778;9.156;2023-03-03T22:01:05;43.13;;;25.20;;
553;SDS011;59;48.778;9.156;2023-03-03T22:03:31;43.53;;;25.20;;
553;SDS011;59;48.778;9.156;2023-03-03T22:05:58;46.07;;;26.30;;
553;SDS011;59;48.778;9.156;2023-03-03T22:08:24;43.90;;;26.13;;
553;SDS011;59;48.778;9.156;2023-03-03T22:10:50;45.37;;;26.13;;
553;SDS011;59;48.778;9.156;2023-03-03T22:13:20;43.63;;;24.03;;
553;SDS011;59;48.778;9.156;2023-03-03T22:15:49;46.20;;;25.77;;
553;SDS011;59;48.778;9.156;2023-03-03T22:18:15;47.13;;;27.30;;
553;SDS011;59;48.778;9.156;2023-03-03T22:20:42;44.57;;;26.67;;
553;SDS011;59;48.778;9.156;2023-03-03T22:23:09;48.20;;;25.13;;
553;SDS011;59;48.778;9.156;2023-03-03T22:25:35;44.73;;;25.47;;
553;SDS011;59;48.778;9.156;2023-03-03T22:28:01;46.50;;;26.40;;
553;SDS011;59;48.778;9.156;2023-03-03T22:30:26;46.87;;;26.03;;
553;SDS011;59;48.778;9.156;2023-03-03T22:32:52;39.00;;;23.13;;
553;SDS011;59;48.778;9.156;2023-03-03T22:35:19;40.30;;;24.90;;
553;SDS011;59;48.778;9.156;2023-03-03T22:37:45;49.57;;;25.73;;
553;SDS011;59;48.778;9.156;2023-03-03T22:40:11;46.43;;;26.40;;
553;SDS011;59;48.778;9.156;2023-03-03T22:42:36;44.60;;;25.10;;
553;SDS011;59;48.778;9.156;2023-03-03T22:45:02;43.37;;;25.63;;
553;SDS011;59;48.778;9.156;2023-03-03T22:47:28;46.23;;;25.53;;
553;SDS011;59;48.778;9.156;2023-03-03T22:49:54;49.77;;;27.77;;
553;SDS011;59;48.778;9.156;2023-03-03T22:52:20;46.00;;;25.73;;
553;SDS011;59;48.778;9.156;2023-03-03T22:54:45;41.60;;;24.00;;
553;SDS011;59;48.778;9.156;2023-03-03T22:57:14;42.87;;;23.20;;
553;SDS011;59;48.778;9.156;2023-03-03T22:59:40;43.20;;;25.03;;
553;SDS011;59;48.778;9.156;2023-03-03T23:02:05;44.23;;;25.43;;